Aviation Digital Data Service (ADDS)

Output produced by METARs form (0409 UTC 26 June 2019)
found at http://www.aviationweather.gov/metar/data/
 
METAR text: WMKK 260400Z 15005KT 100V170 9999 FEW020 SCT140 BKN280 28/23 Q1011 NOSIG
Conditions at: WMKK (KUALA LUMPUR/SUB, MY) observed 0400 UTC 26 June 2019
Temperature: 28.0°C (82°F)
Dewpoint: 23.0°C (73°F) [RH = 74%]
Pressure (altimeter): 29.85 inches Hg (1011.0 mb)
Winds: from the SSE (150 degrees) at 6 MPH (5 knots; 2.6 m/s)
Visibility: 6 or more miles (10+ km)
Ceiling: 28000 feet AGL
Clouds: few clouds at 2000 feet AGL
scattered clouds at 14000 feet AGL
broken clouds at 28000 feet AGL
Weather: no significant weather observed at this time

METAR text: WMKK 260330Z 12003KT 080V180 9999 FEW020 SCT140 BKN280 27/23 Q1012 NOSIG
Conditions at: WMKK (KUALA LUMPUR/SUB, MY) observed 0330 UTC 26 June 2019
Temperature: 27.0°C (81°F)
Dewpoint: 23.0°C (73°F) [RH = 79%]
Pressure (altimeter): 29.88 inches Hg (1012.0 mb)
Winds: from the ESE (120 degrees) at 3 MPH (3 knots; 1.5 m/s)
Visibility: 6 or more miles (10+ km)
Ceiling: 28000 feet AGL
Clouds: few clouds at 2000 feet AGL
scattered clouds at 14000 feet AGL
broken clouds at 28000 feet AGL
Weather: no significant weather observed at this time

METAR text: WMKK 260300Z 11004KT 050V170 9999 FEW020 SCT140 BKN280 26/23 Q1012 NOSIG
Conditions at: WMKK (KUALA LUMPUR/SUB, MY) observed 0300 UTC 26 June 2019
Temperature: 26.0°C (79°F)
Dewpoint: 23.0°C (73°F) [RH = 84%]
Pressure (altimeter): 29.88 inches Hg (1012.0 mb)
Winds: from the ESE (110 degrees) at 5 MPH (4 knots; 2.1 m/s)
Visibility: 6 or more miles (10+ km)
Ceiling: 28000 feet AGL
Clouds: few clouds at 2000 feet AGL
scattered clouds at 14000 feet AGL
broken clouds at 28000 feet AGL
Weather: no significant weather observed at this time

METAR text: WMKK 260230Z 10006KT 050V160 9999 FEW017CB SCT140 BKN270 25/22 Q1012 NOSIG
Conditions at: WMKK (KUALA LUMPUR/SUB, MY) observed 0230 UTC 26 June 2019
Temperature: 25.0°C (77°F)
Dewpoint: 22.0°C (72°F) [RH = 83%]
Pressure (altimeter): 29.88 inches Hg (1012.0 mb)
Winds: from the E (100 degrees) at 7 MPH (6 knots; 3.1 m/s)
Visibility: 6 or more miles (10+ km)
Ceiling: 27000 feet AGL
Clouds: few clouds at 1700 feet AGL
scattered clouds at 14000 feet AGL
broken clouds at 27000 feet AGL
Weather: no significant weather observed at this time

METAR text: WMKK 260200Z 06007KT 010V110 9999 -RA FEW010 FEW017CB BKN140 BKN270 24/22 Q1012 NOSIG
Conditions at: WMKK (KUALA LUMPUR/SUB, MY) observed 0200 UTC 26 June 2019
Temperature: 24.0°C (75°F)
Dewpoint: 22.0°C (72°F) [RH = 89%]
Pressure (altimeter): 29.88 inches Hg (1012.0 mb)
Winds: from the ENE (60 degrees) at 8 MPH (7 knots; 3.6 m/s)
Visibility: 6 or more miles (10+ km)
Ceiling: 14000 feet AGL
Clouds: few clouds at 1000 feet AGL
few clouds at 1700 feet AGL
broken clouds at 14000 feet AGL
broken clouds at 27000 feet AGL
Weather: -RA  (light rain)

METAR text: WMKK 260130Z 04006KT 360V080 9999 FEW010 FEW017CB BKN140 BKN270 24/22 Q1012 NOSIG
Conditions at: WMKK (KUALA LUMPUR/SUB, MY) observed 0130 UTC 26 June 2019
Temperature: 24.0°C (75°F)
Dewpoint: 22.0°C (72°F) [RH = 89%]
Pressure (altimeter): 29.88 inches Hg (1012.0 mb)
Winds: from the NE (40 degrees) at 7 MPH (6 knots; 3.1 m/s)
Visibility: 6 or more miles (10+ km)
Ceiling: 14000 feet AGL
Clouds: few clouds at 1000 feet AGL
few clouds at 1700 feet AGL
broken clouds at 14000 feet AGL
broken clouds at 27000 feet AGL
Weather: no significant weather observed at this time

METAR text: WMKK 260100Z 05007KT 010V090 9999 -RA FEW010 FEW017CB BKN140 BKN270 23/22 Q1012 RETSRA BECMG 9999 NSW
Conditions at: WMKK (KUALA LUMPUR/SUB, MY) observed 0100 UTC 26 June 2019
Temperature: 23.0°C (73°F)
Dewpoint: 22.0°C (72°F) [RH = 94%]
Pressure (altimeter): 29.88 inches Hg (1012.0 mb)
Winds: from the NE (50 degrees) at 8 MPH (7 knots; 3.6 m/s)
Visibility: 6 or more miles (10+ km)
Ceiling: 14000 feet AGL
Clouds: few clouds at 1000 feet AGL
few clouds at 1700 feet AGL
broken clouds at 14000 feet AGL
broken clouds at 27000 feet AGL
Weather: -RA  (light rain)

METAR text: WMKK 260030Z 06007KT 020V110 9000 -RA FEW010 FEW017CB SCT028 BKN270 23/22 Q1013 RETSRA NOSIG
Conditions at: WMKK (KUALA LUMPUR/SUB, MY) observed 0030 UTC 26 June 2019
Temperature: 23.0°C (73°F)
Dewpoint: 22.0°C (72°F) [RH = 94%]
Pressure (altimeter): 29.91 inches Hg (1013.0 mb)
Winds: from the ENE (60 degrees) at 8 MPH (7 knots; 3.6 m/s)
Visibility: 6 miles ( 9 km)
Ceiling: 27000 feet AGL
Clouds: few clouds at 1000 feet AGL
few clouds at 1700 feet AGL
scattered clouds at 2800 feet AGL
broken clouds at 27000 feet AGL
Weather: -RA  (light rain)

METAR text: WMKK 260000Z 03007KT 340V070 7000 -TSRA FEW010 FEW017CB SCT030 BKN270 23/22 Q1013 BECMG 9000 -TSRA
Conditions at: WMKK (KUALA LUMPUR/SUB, MY) observed 0000 UTC 26 June 2019
Temperature: 23.0°C (73°F)
Dewpoint: 22.0°C (72°F) [RH = 94%]
Pressure (altimeter): 29.91 inches Hg (1013.0 mb)
Winds: from the NNE (30 degrees) at 8 MPH (7 knots; 3.6 m/s)
Visibility: 4 miles ( 7 km)
Ceiling: 27000 feet AGL
Clouds: few clouds at 1000 feet AGL
few clouds at 1700 feet AGL
scattered clouds at 3000 feet AGL
broken clouds at 27000 feet AGL
Weather: -TSRA  (light rain associated with thunderstorm(s))

METAR text: WMKK 252330Z 36005KT 320V050 6000 -TSRA FEW010 FEW017CB SCT140 BKN270 22/22 Q1013 BECMG 8000 -TSRA
Conditions at: WMKK (KUALA LUMPUR/SUB, MY) observed 2330 UTC 25 June 2019
Temperature: 22.0°C (72°F)
Dewpoint: 22.0°C (72°F) [RH = 100%]
Pressure (altimeter): 29.91 inches Hg (1013.0 mb)
Winds: from the N (360 degrees) at 6 MPH (5 knots; 2.6 m/s)
Visibility: 4 miles ( 6 km)
Ceiling: 27000 feet AGL
Clouds: few clouds at 1000 feet AGL
few clouds at 1700 feet AGL
scattered clouds at 14000 feet AGL
broken clouds at 27000 feet AGL
Weather: -TSRA  (light rain associated with thunderstorm(s))

METAR text: WMKK 252300Z 33004KT 280V030 7000 -TSRA FEW010 FEW017CB SCT140 BKN270 22/22 Q1013 NOSIG
Conditions at: WMKK (KUALA LUMPUR/SUB, MY) observed 2300 UTC 25 June 2019
Temperature: 22.0°C (72°F)
Dewpoint: 22.0°C (72°F) [RH = 100%]
Pressure (altimeter): 29.91 inches Hg (1013.0 mb)
Winds: from the NNW (330 degrees) at 5 MPH (4 knots; 2.1 m/s)
Visibility: 4 miles ( 7 km)
Ceiling: 27000 feet AGL
Clouds: few clouds at 1000 feet AGL
few clouds at 1700 feet AGL
scattered clouds at 14000 feet AGL
broken clouds at 27000 feet AGL
Weather: -TSRA  (light rain associated with thunderstorm(s))

METAR text: WMKK 252230Z 33006KT 290V030 8000 -TSRA FEW010 FEW017CB SCT140 BKN270 23/22 Q1013 NOSIG
Conditions at: WMKK (KUALA LUMPUR/SUB, MY) observed 2230 UTC 25 June 2019
Temperature: 23.0°C (73°F)
Dewpoint: 22.0°C (72°F) [RH = 94%]
Pressure (altimeter): 29.91 inches Hg (1013.0 mb)
Winds: from the NNW (330 degrees) at 7 MPH (6 knots; 3.1 m/s)
Visibility: 5 miles ( 8 km)
Ceiling: 27000 feet AGL
Clouds: few clouds at 1000 feet AGL
few clouds at 1700 feet AGL
scattered clouds at 14000 feet AGL
broken clouds at 27000 feet AGL
Weather: -TSRA  (light rain associated with thunderstorm(s))

METAR text: WMKK 252200Z 31009KT 260V010 8000 -TSRA FEW010 FEW017CB SCT140 BKN270 23/22 Q1012 NOSIG
Conditions at: WMKK (KUALA LUMPUR/SUB, MY) observed 2200 UTC 25 June 2019
Temperature: 23.0°C (73°F)
Dewpoint: 22.0°C (72°F) [RH = 94%]
Pressure (altimeter): 29.88 inches Hg (1012.0 mb)
Winds: from the NW (310 degrees) at 10 MPH (9 knots; 4.6 m/s)
Visibility: 5 miles ( 8 km)
Ceiling: 27000 feet AGL
Clouds: few clouds at 1000 feet AGL
few clouds at 1700 feet AGL
scattered clouds at 14000 feet AGL
broken clouds at 27000 feet AGL
Weather: -TSRA  (light rain associated with thunderstorm(s))

METAR text: WMKK 252130Z 29005KT 240V350 7000 -TSRA FEW010 FEW017CB SCT140 BKN280 23/23 Q1012 RETSRA BECMG 8000 -TSRA
Conditions at: WMKK (KUALA LUMPUR/SUB, MY) observed 2130 UTC 25 June 2019
Temperature: 23.0°C (73°F)
Dewpoint: 23.0°C (73°F) [RH = 100%]
Pressure (altimeter): 29.88 inches Hg (1012.0 mb)
Winds: from the WNW (290 degrees) at 6 MPH (5 knots; 2.6 m/s)
Visibility: 4 miles ( 7 km)
Ceiling: 28000 feet AGL
Clouds: few clouds at 1000 feet AGL
few clouds at 1700 feet AGL
scattered clouds at 14000 feet AGL
broken clouds at 28000 feet AGL
Weather: -TSRA  (light rain associated with thunderstorm(s))

METAR text: WMKK 252100Z 31012KT 230V360 6000 TSRA FEW010 FEW017CB SCT140 BKN280 24/22 Q1011 TEMPO 4000 TSRA
Conditions at: WMKK (KUALA LUMPUR/SUB, MY) observed 2100 UTC 25 June 2019
Temperature: 24.0°C (75°F)
Dewpoint: 22.0°C (72°F) [RH = 89%]
Pressure (altimeter): 29.85 inches Hg (1011.0 mb)
Winds: from the NW (310 degrees) at 14 MPH (12 knots; 6.2 m/s)
Visibility: 4 miles ( 6 km)
Ceiling: 28000 feet AGL
Clouds: few clouds at 1000 feet AGL
few clouds at 1700 feet AGL
scattered clouds at 14000 feet AGL
broken clouds at 28000 feet AGL
Weather: TSRA  (rain associated with thunderstorm(s))

METAR text: WMKK 252030Z VRB05G19KT 9000 FEW017CB SCT140 BKN280 27/24 Q1010 TEMPO 5000 TSRA
Conditions at: WMKK (KUALA LUMPUR/SUB, MY) observed 2030 UTC 25 June 2019
Temperature: 27.0°C (81°F)
Dewpoint: 24.0°C (75°F) [RH = 84%]
Pressure (altimeter): 29.82 inches Hg (1010.0 mb)
Winds: variable direction winds at 6 MPH (5 knots; 2.6 m/s)
gusting to 22 MPH (19 knots; 9.8 m/s)
Visibility: 6 miles ( 9 km)
Ceiling: 28000 feet AGL
Clouds: few clouds at 1700 feet AGL
scattered clouds at 14000 feet AGL
broken clouds at 28000 feet AGL
Weather: no significant weather observed at this time

METAR text: WMKK 252000Z 12005KT 070V170 9000 FEW017CB SCT140 BKN280 28/25 Q1010 NOSIG
Conditions at: WMKK (KUALA LUMPUR/SUB, MY) observed 2000 UTC 25 June 2019
Temperature: 28.0°C (82°F)
Dewpoint: 25.0°C (77°F) [RH = 84%]
Pressure (altimeter): 29.82 inches Hg (1010.0 mb)
Winds: from the ESE (120 degrees) at 6 MPH (5 knots; 2.6 m/s)
Visibility: 6 miles ( 9 km)
Ceiling: 28000 feet AGL
Clouds: few clouds at 1700 feet AGL
scattered clouds at 14000 feet AGL
broken clouds at 28000 feet AGL
Weather: no significant weather observed at this time

METAR text: WMKK 251930Z 11005KT 060V170 9000 FEW030 SCT140 BKN280 28/25 Q1010 NOSIG
Conditions at: WMKK (KUALA LUMPUR/SUB, MY) observed 1930 UTC 25 June 2019
Temperature: 28.0°C (82°F)
Dewpoint: 25.0°C (77°F) [RH = 84%]
Pressure (altimeter): 29.82 inches Hg (1010.0 mb)
Winds: from the ESE (110 degrees) at 6 MPH (5 knots; 2.6 m/s)
Visibility: 6 miles ( 9 km)
Ceiling: 28000 feet AGL
Clouds: few clouds at 3000 feet AGL
scattered clouds at 14000 feet AGL
broken clouds at 28000 feet AGL
Weather: no significant weather observed at this time

METAR text: WMKK 251900Z 13006KT 100V200 9000 FEW030 SCT140 BKN280 28/25 Q1010 NOSIG
Conditions at: WMKK (KUALA LUMPUR/SUB, MY) observed 1900 UTC 25 June 2019
Temperature: 28.0°C (82°F)
Dewpoint: 25.0°C (77°F) [RH = 84%]
Pressure (altimeter): 29.82 inches Hg (1010.0 mb)
Winds: from the SE (130 degrees) at 7 MPH (6 knots; 3.1 m/s)
Visibility: 6 miles ( 9 km)
Ceiling: 28000 feet AGL
Clouds: few clouds at 3000 feet AGL
scattered clouds at 14000 feet AGL
broken clouds at 28000 feet AGL
Weather: no significant weather observed at this time

METAR text: WMKK 251830Z 15004KT 110V170 9000 FEW030 SCT140 BKN280 28/25 Q1010 NOSIG
Conditions at: WMKK (KUALA LUMPUR/SUB, MY) observed 1830 UTC 25 June 2019
Temperature: 28.0°C (82°F)
Dewpoint: 25.0°C (77°F) [RH = 84%]
Pressure (altimeter): 29.82 inches Hg (1010.0 mb)
Winds: from the SSE (150 degrees) at 5 MPH (4 knots; 2.1 m/s)
Visibility: 6 miles ( 9 km)
Ceiling: 28000 feet AGL
Clouds: few clouds at 3000 feet AGL
scattered clouds at 14000 feet AGL
broken clouds at 28000 feet AGL
Weather: no significant weather observed at this time

METAR text: WMKK 251800Z 13006KT 090V170 9000 FEW030 SCT140 BKN280 28/25 Q1010 NOSIG
Conditions at: WMKK (KUALA LUMPUR/SUB, MY) observed 1800 UTC 25 June 2019
Temperature: 28.0°C (82°F)
Dewpoint: 25.0°C (77°F) [RH = 84%]
Pressure (altimeter): 29.82 inches Hg (1010.0 mb)
Winds: from the SE (130 degrees) at 7 MPH (6 knots; 3.1 m/s)
Visibility: 6 miles ( 9 km)
Ceiling: 28000 feet AGL
Clouds: few clouds at 3000 feet AGL
scattered clouds at 14000 feet AGL
broken clouds at 28000 feet AGL
Weather: no significant weather observed at this time

METAR text: WMKK 251730Z 13005KT 080V170 9000 FEW030 SCT140 BKN280 28/25 Q1010 NOSIG
Conditions at: WMKK (KUALA LUMPUR/SUB, MY) observed 1730 UTC 25 June 2019
Temperature: 28.0°C (82°F)
Dewpoint: 25.0°C (77°F) [RH = 84%]
Pressure (altimeter): 29.82 inches Hg (1010.0 mb)
Winds: from the SE (130 degrees) at 6 MPH (5 knots; 2.6 m/s)
Visibility: 6 miles ( 9 km)
Ceiling: 28000 feet AGL
Clouds: few clouds at 3000 feet AGL
scattered clouds at 14000 feet AGL
broken clouds at 28000 feet AGL
Weather: no significant weather observed at this time

METAR text: WMKK 251700Z 15004KT 100V190 9000 FEW030 SCT140 BKN280 27/25 Q1011 NOSIG
Conditions at: WMKK (KUALA LUMPUR/SUB, MY) observed 1700 UTC 25 June 2019
Temperature: 27.0°C (81°F)
Dewpoint: 25.0°C (77°F) [RH = 89%]
Pressure (altimeter): 29.85 inches Hg (1011.0 mb)
Winds: from the SSE (150 degrees) at 5 MPH (4 knots; 2.1 m/s)
Visibility: 6 miles ( 9 km)
Ceiling: 28000 feet AGL
Clouds: few clouds at 3000 feet AGL
scattered clouds at 14000 feet AGL
broken clouds at 28000 feet AGL
Weather: no significant weather observed at this time

METAR text: WMKK 251630Z 16003KT 110V210 9000 FEW030 SCT140 BKN280 28/25 Q1011 NOSIG
Conditions at: WMKK (KUALA LUMPUR/SUB, MY) observed 1630 UTC 25 June 2019
Temperature: 28.0°C (82°F)
Dewpoint: 25.0°C (77°F) [RH = 84%]
Pressure (altimeter): 29.85 inches Hg (1011.0 mb)
Winds: from the SSE (160 degrees) at 3 MPH (3 knots; 1.5 m/s)
Visibility: 6 miles ( 9 km)
Ceiling: 28000 feet AGL
Clouds: few clouds at 3000 feet AGL
scattered clouds at 14000 feet AGL
broken clouds at 28000 feet AGL
Weather: no significant weather observed at this time

METAR text: WMKK 251600Z 15004KT 110V190 9000 FEW030 SCT140 BKN280 28/25 Q1011 NOSIG
Conditions at: WMKK (KUALA LUMPUR/SUB, MY) observed 1600 UTC 25 June 2019
Temperature: 28.0°C (82°F)
Dewpoint: 25.0°C (77°F) [RH = 84%]
Pressure (altimeter): 29.85 inches Hg (1011.0 mb)
Winds: from the SSE (150 degrees) at 5 MPH (4 knots; 2.1 m/s)
Visibility: 6 miles ( 9 km)
Ceiling: 28000 feet AGL
Clouds: few clouds at 3000 feet AGL
scattered clouds at 14000 feet AGL
broken clouds at 28000 feet AGL
Weather: no significant weather observed at this time

METAR text: WMKK 251530Z 14003KT 080V180 9000 FEW030 SCT140 BKN280 28/25 Q1011 NOSIG
Conditions at: WMKK (KUALA LUMPUR/SUB, MY) observed 1530 UTC 25 June 2019
Temperature: 28.0°C (82°F)
Dewpoint: 25.0°C (77°F) [RH = 84%]
Pressure (altimeter): 29.85 inches Hg (1011.0 mb)
Winds: from the SE (140 degrees) at 3 MPH (3 knots; 1.5 m/s)
Visibility: 6 miles ( 9 km)
Ceiling: 28000 feet AGL
Clouds: few clouds at 3000 feet AGL
scattered clouds at 14000 feet AGL
broken clouds at 28000 feet AGL
Weather: no significant weather observed at this time

METAR text: WMKK 251500Z 14003KT 090V190 9000 FEW030 SCT140 BKN280 28/25 Q1010 NOSIG
Conditions at: WMKK (KUALA LUMPUR/SUB, MY) observed 1500 UTC 25 June 2019
Temperature: 28.0°C (82°F)
Dewpoint: 25.0°C (77°F) [RH = 84%]
Pressure (altimeter): 29.82 inches Hg (1010.0 mb)
Winds: from the SE (140 degrees) at 3 MPH (3 knots; 1.5 m/s)
Visibility: 6 miles ( 9 km)
Ceiling: 28000 feet AGL
Clouds: few clouds at 3000 feet AGL
scattered clouds at 14000 feet AGL
broken clouds at 28000 feet AGL
Weather: no significant weather observed at this time

METAR text: WMKK 251430Z VRB03KT 9000 FEW030 SCT140 BKN280 28/25 Q1010 NOSIG
Conditions at: WMKK (KUALA LUMPUR/SUB, MY) observed 1430 UTC 25 June 2019
Temperature: 28.0°C (82°F)
Dewpoint: 25.0°C (77°F) [RH = 84%]
Pressure (altimeter): 29.82 inches Hg (1010.0 mb)
Winds: variable direction winds at 3 MPH (3 knots; 1.5 m/s)
Visibility: 6 miles ( 9 km)
Ceiling: 28000 feet AGL
Clouds: few clouds at 3000 feet AGL
scattered clouds at 14000 feet AGL
broken clouds at 28000 feet AGL
Weather: no significant weather observed at this time

METAR text: WMKK 251400Z VRB03KT 9000 FEW030 SCT140 BKN280 28/26 Q1010 NOSIG
Conditions at: WMKK (KUALA LUMPUR/SUB, MY) observed 1400 UTC 25 June 2019
Temperature: 28.0°C (82°F)
Dewpoint: 26.0°C (79°F) [RH = 89%]
Pressure (altimeter): 29.82 inches Hg (1010.0 mb)
Winds: variable direction winds at 3 MPH (3 knots; 1.5 m/s)
Visibility: 6 miles ( 9 km)
Ceiling: 28000 feet AGL
Clouds: few clouds at 3000 feet AGL
scattered clouds at 14000 feet AGL
broken clouds at 28000 feet AGL
Weather: no significant weather observed at this time

METAR text: WMKK 251330Z VRB01KT 9000 FEW030 SCT140 BKN280 29/26 Q1010 NOSIG
Conditions at: WMKK (KUALA LUMPUR/SUB, MY) observed 1330 UTC 25 June 2019
Temperature: 29.0°C (84°F)
Dewpoint: 26.0°C (79°F) [RH = 84%]
Pressure (altimeter): 29.82 inches Hg (1010.0 mb)
Winds: variable direction winds at 1 MPH (1 knots; 0.5 m/s)
Visibility: 6 miles ( 9 km)
Ceiling: 28000 feet AGL
Clouds: few clouds at 3000 feet AGL
scattered clouds at 14000 feet AGL
broken clouds at 28000 feet AGL
Weather: no significant weather observed at this time

METAR text: WMKK 251300Z 10004KT 040V160 9000 FEW030 SCT140 BKN280 29/25 Q1009 NOSIG
Conditions at: WMKK (KUALA LUMPUR/SUB, MY) observed 1300 UTC 25 June 2019
Temperature: 29.0°C (84°F)
Dewpoint: 25.0°C (77°F) [RH = 79%]
Pressure (altimeter): 29.79 inches Hg (1009.0 mb)
Winds: from the E (100 degrees) at 5 MPH (4 knots; 2.1 m/s)
Visibility: 6 miles ( 9 km)
Ceiling: 28000 feet AGL
Clouds: few clouds at 3000 feet AGL
scattered clouds at 14000 feet AGL
broken clouds at 28000 feet AGL
Weather: no significant weather observed at this time

METAR text: WMKK 251230Z VRB02KT 9999 FEW030 SCT140 BKN290 29/25 Q1009 NOSIG
Conditions at: WMKK (KUALA LUMPUR/SUB, MY) observed 1230 UTC 25 June 2019
Temperature: 29.0°C (84°F)
Dewpoint: 25.0°C (77°F) [RH = 79%]
Pressure (altimeter): 29.79 inches Hg (1009.0 mb)
Winds: variable direction winds at 2 MPH (2 knots; 1.0 m/s)
Visibility: 6 or more miles (10+ km)
Ceiling: 29000 feet AGL
Clouds: few clouds at 3000 feet AGL
scattered clouds at 14000 feet AGL
broken clouds at 29000 feet AGL
Weather: no significant weather observed at this time

METAR text: WMKK 251200Z 13004KT 090V170 9999 FEW030 SCT140 BKN290 29/25 Q1009 NOSIG
Conditions at: WMKK (KUALA LUMPUR/SUB, MY) observed 1200 UTC 25 June 2019
Temperature: 29.0°C (84°F)
Dewpoint: 25.0°C (77°F) [RH = 79%]
Pressure (altimeter): 29.79 inches Hg (1009.0 mb)
Winds: from the SE (130 degrees) at 5 MPH (4 knots; 2.1 m/s)
Visibility: 6 or more miles (10+ km)
Ceiling: 29000 feet AGL
Clouds: few clouds at 3000 feet AGL
scattered clouds at 14000 feet AGL
broken clouds at 29000 feet AGL
Weather: no significant weather observed at this time

METAR text: WMKK 251130Z 13005KT 100V190 9999 FEW030 SCT140 BKN290 29/25 Q1008 NOSIG
Conditions at: WMKK (KUALA LUMPUR/SUB, MY) observed 1130 UTC 25 June 2019
Temperature: 29.0°C (84°F)
Dewpoint: 25.0°C (77°F) [RH = 79%]
Pressure (altimeter): 29.76 inches Hg (1008.0 mb)
Winds: from the SE (130 degrees) at 6 MPH (5 knots; 2.6 m/s)
Visibility: 6 or more miles (10+ km)
Ceiling: 29000 feet AGL
Clouds: few clouds at 3000 feet AGL
scattered clouds at 14000 feet AGL
broken clouds at 29000 feet AGL
Weather: no significant weather observed at this time

METAR text: WMKK 251100Z 14005KT 100V170 9999 FEW030 SCT140 BKN290 30/26 Q1008 NOSIG
Conditions at: WMKK (KUALA LUMPUR/SUB, MY) observed 1100 UTC 25 June 2019
Temperature: 30.0°C (86°F)
Dewpoint: 26.0°C (79°F) [RH = 79%]
Pressure (altimeter): 29.76 inches Hg (1008.0 mb)
Winds: from the SE (140 degrees) at 6 MPH (5 knots; 2.6 m/s)
Visibility: 6 or more miles (10+ km)
Ceiling: 29000 feet AGL
Clouds: few clouds at 3000 feet AGL
scattered clouds at 14000 feet AGL
broken clouds at 29000 feet AGL
Weather: no significant weather observed at this time

METAR text: WMKK 251030Z 13006KT 070V170 9999 FEW030 BKN140 BKN280 30/25 Q1008 NOSIG
Conditions at: WMKK (KUALA LUMPUR/SUB, MY) observed 1030 UTC 25 June 2019
Temperature: 30.0°C (86°F)
Dewpoint: 25.0°C (77°F) [RH = 75%]
Pressure (altimeter): 29.76 inches Hg (1008.0 mb)
Winds: from the SE (130 degrees) at 7 MPH (6 knots; 3.1 m/s)
Visibility: 6 or more miles (10+ km)
Ceiling: 14000 feet AGL
Clouds: few clouds at 3000 feet AGL
broken clouds at 14000 feet AGL
broken clouds at 28000 feet AGL
Weather: no significant weather observed at this time

METAR text: WMKK 251000Z 14005KT 090V170 9999 FEW018 BKN140 BKN280 31/26 Q1008 NOSIG
Conditions at: WMKK (KUALA LUMPUR/SUB, MY) observed 1000 UTC 25 June 2019
Temperature: 31.0°C (88°F)
Dewpoint: 26.0°C (79°F) [RH = 75%]
Pressure (altimeter): 29.76 inches Hg (1008.0 mb)
Winds: from the SE (140 degrees) at 6 MPH (5 knots; 2.6 m/s)
Visibility: 6 or more miles (10+ km)
Ceiling: 14000 feet AGL
Clouds: few clouds at 1800 feet AGL
broken clouds at 14000 feet AGL
broken clouds at 28000 feet AGL
Weather: no significant weather observed at this time

METAR text: WMKK 250930Z 15004KT 100V190 9999 FEW018 BKN140 BKN280 31/25 Q1008 NOSIG
Conditions at: WMKK (KUALA LUMPUR/SUB, MY) observed 0930 UTC 25 June 2019
Temperature: 31.0°C (88°F)
Dewpoint: 25.0°C (77°F) [RH = 71%]
Pressure (altimeter): 29.76 inches Hg (1008.0 mb)
Winds: from the SSE (150 degrees) at 5 MPH (4 knots; 2.1 m/s)
Visibility: 6 or more miles (10+ km)
Ceiling: 14000 feet AGL
Clouds: few clouds at 1800 feet AGL
broken clouds at 14000 feet AGL
broken clouds at 28000 feet AGL
Weather: no significant weather observed at this time

METAR text: WMKK 250900Z 16005KT 070V230 9999 FEW018 SCT140 BKN280 32/26 Q1008 NOSIG
Conditions at: WMKK (KUALA LUMPUR/SUB, MY) observed 0900 UTC 25 June 2019
Temperature: 32.0°C (90°F)
Dewpoint: 26.0°C (79°F) [RH = 71%]
Pressure (altimeter): 29.76 inches Hg (1008.0 mb)
Winds: from the SSE (160 degrees) at 6 MPH (5 knots; 2.6 m/s)
Visibility: 6 or more miles (10+ km)
Ceiling: 28000 feet AGL
Clouds: few clouds at 1800 feet AGL
scattered clouds at 14000 feet AGL
broken clouds at 28000 feet AGL
Weather: no significant weather observed at this time

METAR text: WMKK 250830Z 17005KT 090V250 9999 FEW018 SCT140 BKN280 32/25 Q1008 NOSIG
Conditions at: WMKK (KUALA LUMPUR/SUB, MY) observed 0830 UTC 25 June 2019
Temperature: 32.0°C (90°F)
Dewpoint: 25.0°C (77°F) [RH = 67%]
Pressure (altimeter): 29.76 inches Hg (1008.0 mb)
Winds: from the S (170 degrees) at 6 MPH (5 knots; 2.6 m/s)
Visibility: 6 or more miles (10+ km)
Ceiling: 28000 feet AGL
Clouds: few clouds at 1800 feet AGL
scattered clouds at 14000 feet AGL
broken clouds at 28000 feet AGL
Weather: no significant weather observed at this time

METAR text: WMKK 250800Z 16007KT 090V230 9999 FEW018 SCT140 BKN290 32/25 Q1008 NOSIG
Conditions at: WMKK (KUALA LUMPUR/SUB, MY) observed 0800 UTC 25 June 2019
Temperature: 32.0°C (90°F)
Dewpoint: 25.0°C (77°F) [RH = 67%]
Pressure (altimeter): 29.76 inches Hg (1008.0 mb)
Winds: from the SSE (160 degrees) at 8 MPH (7 knots; 3.6 m/s)
Visibility: 6 or more miles (10+ km)
Ceiling: 29000 feet AGL
Clouds: few clouds at 1800 feet AGL
scattered clouds at 14000 feet AGL
broken clouds at 29000 feet AGL
Weather: no significant weather observed at this time

METAR text: WMKK 250730Z VRB08KT 9999 FEW018 SCT140 BKN290 32/25 Q1008 NOSIG
Conditions at: WMKK (KUALA LUMPUR/SUB, MY) observed 0730 UTC 25 June 2019
Temperature: 32.0°C (90°F)
Dewpoint: 25.0°C (77°F) [RH = 67%]
Pressure (altimeter): 29.76 inches Hg (1008.0 mb)
Winds: variable direction winds at 9 MPH (8 knots; 4.1 m/s)
Visibility: 6 or more miles (10+ km)
Ceiling: 29000 feet AGL
Clouds: few clouds at 1800 feet AGL
scattered clouds at 14000 feet AGL
broken clouds at 29000 feet AGL
Weather: no significant weather observed at this time

METAR text: WMKK 250700Z VRB06KT 9999 FEW017CB SCT140 BKN290 31/26 Q1009 NOSIG
Conditions at: WMKK (KUALA LUMPUR/SUB, MY) observed 0700 UTC 25 June 2019
Temperature: 31.0°C (88°F)
Dewpoint: 26.0°C (79°F) [RH = 75%]
Pressure (altimeter): 29.79 inches Hg (1009.0 mb)
Winds: variable direction winds at 7 MPH (6 knots; 3.1 m/s)
Visibility: 6 or more miles (10+ km)
Ceiling: 29000 feet AGL
Clouds: few clouds at 1700 feet AGL
scattered clouds at 14000 feet AGL
broken clouds at 29000 feet AGL
Weather: no significant weather observed at this time

METAR text: WMKK 250630Z 17007KT 100V250 9999 FEW017CB SCT140 BKN290 31/26 Q1009 NOSIG
Conditions at: WMKK (KUALA LUMPUR/SUB, MY) observed 0630 UTC 25 June 2019
Temperature: 31.0°C (88°F)
Dewpoint: 26.0°C (79°F) [RH = 75%]
Pressure (altimeter): 29.79 inches Hg (1009.0 mb)
Winds: from the S (170 degrees) at 8 MPH (7 knots; 3.6 m/s)
Visibility: 6 or more miles (10+ km)
Ceiling: 29000 feet AGL
Clouds: few clouds at 1700 feet AGL
scattered clouds at 14000 feet AGL
broken clouds at 29000 feet AGL
Weather: no significant weather observed at this time

METAR text: WMKK 250600Z 17009KT 110V230 8000 FEW017CB BKN140 BKN280 32/25 Q1010 NOSIG
Conditions at: WMKK (KUALA LUMPUR/SUB, MY) observed 0600 UTC 25 June 2019
Temperature: 32.0°C (90°F)
Dewpoint: 25.0°C (77°F) [RH = 67%]
Pressure (altimeter): 29.82 inches Hg (1010.0 mb)
Winds: from the S (170 degrees) at 10 MPH (9 knots; 4.6 m/s)
Visibility: 5 miles ( 8 km)
Ceiling: 14000 feet AGL
Clouds: few clouds at 1700 feet AGL
broken clouds at 14000 feet AGL
broken clouds at 28000 feet AGL
Weather: no significant weather observed at this time

METAR text: WMKK 250530Z 16009KT 100V240 8000 FEW017CB SCT140 BKN280 32/26 Q1010 NOSIG
Conditions at: WMKK (KUALA LUMPUR/SUB, MY) observed 0530 UTC 25 June 2019
Temperature: 32.0°C (90°F)
Dewpoint: 26.0°C (79°F) [RH = 71%]
Pressure (altimeter): 29.82 inches Hg (1010.0 mb)
Winds: from the SSE (160 degrees) at 10 MPH (9 knots; 4.6 m/s)
Visibility: 5 miles ( 8 km)
Ceiling: 28000 feet AGL
Clouds: few clouds at 1700 feet AGL
scattered clouds at 14000 feet AGL
broken clouds at 28000 feet AGL
Weather: no significant weather observed at this time

METAR text: WMKK 250500Z 17008KT 070V240 8000 FEW017CB SCT140 BKN280 32/26 Q1010 NOSIG
Conditions at: WMKK (KUALA LUMPUR/SUB, MY) observed 0500 UTC 25 June 2019
Temperature: 32.0°C (90°F)
Dewpoint: 26.0°C (79°F) [RH = 71%]
Pressure (altimeter): 29.82 inches Hg (1010.0 mb)
Winds: from the S (170 degrees) at 9 MPH (8 knots; 4.1 m/s)
Visibility: 5 miles ( 8 km)
Ceiling: 28000 feet AGL
Clouds: few clouds at 1700 feet AGL
scattered clouds at 14000 feet AGL
broken clouds at 28000 feet AGL
Weather: no significant weather observed at this time

METAR text: WMKK 250430Z 16008KT 100V230 8000 FEW017CB SCT140 BKN280 32/26 Q1011 NOSIG
Conditions at: WMKK (KUALA LUMPUR/SUB, MY) observed 0430 UTC 25 June 2019
Temperature: 32.0°C (90°F)
Dewpoint: 26.0°C (79°F) [RH = 71%]
Pressure (altimeter): 29.85 inches Hg (1011.0 mb)
Winds: from the SSE (160 degrees) at 9 MPH (8 knots; 4.1 m/s)
Visibility: 5 miles ( 8 km)
Ceiling: 28000 feet AGL
Clouds: few clouds at 1700 feet AGL
scattered clouds at 14000 feet AGL
broken clouds at 28000 feet AGL
Weather: no significant weather observed at this time

METAR text: WMKK 250400Z 16009KT 100V230 8000 FEW017CB SCT140 BKN280 32/26 Q1011 NOSIG
Conditions at: WMKK (KUALA LUMPUR/SUB, MY) observed 0400 UTC 25 June 2019
Temperature: 32.0°C (90°F)
Dewpoint: 26.0°C (79°F) [RH = 71%]
Pressure (altimeter): 29.85 inches Hg (1011.0 mb)
Winds: from the SSE (160 degrees) at 10 MPH (9 knots; 4.6 m/s)
Visibility: 5 miles ( 8 km)
Ceiling: 28000 feet AGL
Clouds: few clouds at 1700 feet AGL
scattered clouds at 14000 feet AGL
broken clouds at 28000 feet AGL
Weather: no significant weather observed at this time

METAR text: WMKK 250330Z 16009KT 100V230 8000 FEW017CB SCT140 BKN280 32/26 Q1011 NOSIG
Conditions at: WMKK (KUALA LUMPUR/SUB, MY) observed 0330 UTC 25 June 2019
Temperature: 32.0°C (90°F)
Dewpoint: 26.0°C (79°F) [RH = 71%]
Pressure (altimeter): 29.85 inches Hg (1011.0 mb)
Winds: from the SSE (160 degrees) at 10 MPH (9 knots; 4.6 m/s)
Visibility: 5 miles ( 8 km)
Ceiling: 28000 feet AGL
Clouds: few clouds at 1700 feet AGL
scattered clouds at 14000 feet AGL
broken clouds at 28000 feet AGL
Weather: no significant weather observed at this time

METAR text: WMKK 250300Z 15007KT 080V200 8000 FEW017CB SCT140 BKN280 31/26 Q1011 NOSIG
Conditions at: WMKK (KUALA LUMPUR/SUB, MY) observed 0300 UTC 25 June 2019
Temperature: 31.0°C (88°F)
Dewpoint: 26.0°C (79°F) [RH = 75%]
Pressure (altimeter): 29.85 inches Hg (1011.0 mb)
Winds: from the SSE (150 degrees) at 8 MPH (7 knots; 3.6 m/s)
Visibility: 5 miles ( 8 km)
Ceiling: 28000 feet AGL
Clouds: few clouds at 1700 feet AGL
scattered clouds at 14000 feet AGL
broken clouds at 28000 feet AGL
Weather: no significant weather observed at this time

METAR text: WMKK 250230Z 14009KT 090V190 8000 FEW018 BKN140 BKN280 31/26 Q1011 NOSIG
Conditions at: WMKK (KUALA LUMPUR/SUB, MY) observed 0230 UTC 25 June 2019
Temperature: 31.0°C (88°F)
Dewpoint: 26.0°C (79°F) [RH = 75%]
Pressure (altimeter): 29.85 inches Hg (1011.0 mb)
Winds: from the SE (140 degrees) at 10 MPH (9 knots; 4.6 m/s)
Visibility: 5 miles ( 8 km)
Ceiling: 14000 feet AGL
Clouds: few clouds at 1800 feet AGL
broken clouds at 14000 feet AGL
broken clouds at 28000 feet AGL
Weather: no significant weather observed at this time

METAR text: WMKK 250200Z 14008KT 100V190 8000 FEW018 SCT140 BKN280 30/26 Q1011 NOSIG
Conditions at: WMKK (KUALA LUMPUR/SUB, MY) observed 0200 UTC 25 June 2019
Temperature: 30.0°C (86°F)
Dewpoint: 26.0°C (79°F) [RH = 79%]
Pressure (altimeter): 29.85 inches Hg (1011.0 mb)
Winds: from the SE (140 degrees) at 9 MPH (8 knots; 4.1 m/s)
Visibility: 5 miles ( 8 km)
Ceiling: 28000 feet AGL
Clouds: few clouds at 1800 feet AGL
scattered clouds at 14000 feet AGL
broken clouds at 28000 feet AGL
Weather: no significant weather observed at this time

METAR text: WMKK 250130Z 13006KT 070V180 8000 FEW017CB BKN140 BKN280 30/26 Q1011 NOSIG
Conditions at: WMKK (KUALA LUMPUR/SUB, MY) observed 0130 UTC 25 June 2019
Temperature: 30.0°C (86°F)
Dewpoint: 26.0°C (79°F) [RH = 79%]
Pressure (altimeter): 29.85 inches Hg (1011.0 mb)
Winds: from the SE (130 degrees) at 7 MPH (6 knots; 3.1 m/s)
Visibility: 5 miles ( 8 km)
Ceiling: 14000 feet AGL
Clouds: few clouds at 1700 feet AGL
broken clouds at 14000 feet AGL
broken clouds at 28000 feet AGL
Weather: no significant weather observed at this time

METAR text: WMKK 250100Z 13006KT 080V170 9000 FEW017CB SCT140 BKN280 29/25 Q1011 NOSIG
Conditions at: WMKK (KUALA LUMPUR/SUB, MY) observed 0100 UTC 25 June 2019
Temperature: 29.0°C (84°F)
Dewpoint: 25.0°C (77°F) [RH = 79%]
Pressure (altimeter): 29.85 inches Hg (1011.0 mb)
Winds: from the SE (130 degrees) at 7 MPH (6 knots; 3.1 m/s)
Visibility: 6 miles ( 9 km)
Ceiling: 28000 feet AGL
Clouds: few clouds at 1700 feet AGL
scattered clouds at 14000 feet AGL
broken clouds at 28000 feet AGL
Weather: no significant weather observed at this time

METAR text: WMKK 250030Z 13005KT 090V170 9000 FEW017CB SCT140 BKN280 29/25 Q1011 NOSIG
Conditions at: WMKK (KUALA LUMPUR/SUB, MY) observed 0030 UTC 25 June 2019
Temperature: 29.0°C (84°F)
Dewpoint: 25.0°C (77°F) [RH = 79%]
Pressure (altimeter): 29.85 inches Hg (1011.0 mb)
Winds: from the SE (130 degrees) at 6 MPH (5 knots; 2.6 m/s)
Visibility: 6 miles ( 9 km)
Ceiling: 28000 feet AGL
Clouds: few clouds at 1700 feet AGL
scattered clouds at 14000 feet AGL
broken clouds at 28000 feet AGL
Weather: no significant weather observed at this time

METAR text: WMKK 250000Z 13005KT 090V160 9999 FEW017CB SCT140 BKN280 28/25 Q1011 NOSIG
Conditions at: WMKK (KUALA LUMPUR/SUB, MY) observed 0000 UTC 25 June 2019
Temperature: 28.0°C (82°F)
Dewpoint: 25.0°C (77°F) [RH = 84%]
Pressure (altimeter): 29.85 inches Hg (1011.0 mb)
Winds: from the SE (130 degrees) at 6 MPH (5 knots; 2.6 m/s)
Visibility: 6 or more miles (10+ km)
Ceiling: 28000 feet AGL
Clouds: few clouds at 1700 feet AGL
scattered clouds at 14000 feet AGL
broken clouds at 28000 feet AGL
Weather: no significant weather observed at this time

METAR text: WMKK 242330Z 13004KT 080V160 9999 FEW017CB SCT140 BKN280 27/25 Q1010 NOSIG
Conditions at: WMKK (KUALA LUMPUR/SUB, MY) observed 2330 UTC 24 June 2019
Temperature: 27.0°C (81°F)
Dewpoint: 25.0°C (77°F) [RH = 89%]
Pressure (altimeter): 29.82 inches Hg (1010.0 mb)
Winds: from the SE (130 degrees) at 5 MPH (4 knots; 2.1 m/s)
Visibility: 6 or more miles (10+ km)
Ceiling: 28000 feet AGL
Clouds: few clouds at 1700 feet AGL
scattered clouds at 14000 feet AGL
broken clouds at 28000 feet AGL
Weather: no significant weather observed at this time

METAR text: WMKK 242300Z 14003KT 090V180 9000 FEW017CB SCT140 BKN280 27/25 Q1010 NOSIG
Conditions at: WMKK (KUALA LUMPUR/SUB, MY) observed 2300 UTC 24 June 2019
Temperature: 27.0°C (81°F)
Dewpoint: 25.0°C (77°F) [RH = 89%]
Pressure (altimeter): 29.82 inches Hg (1010.0 mb)
Winds: from the SE (140 degrees) at 3 MPH (3 knots; 1.5 m/s)
Visibility: 6 miles ( 9 km)
Ceiling: 28000 feet AGL
Clouds: few clouds at 1700 feet AGL
scattered clouds at 14000 feet AGL
broken clouds at 28000 feet AGL
Weather: no significant weather observed at this time

METAR text: WMKK 242230Z VRB03KT 9000 FEW017CB BKN140 BKN280 27/25 Q1010 NOSIG
Conditions at: WMKK (KUALA LUMPUR/SUB, MY) observed 2230 UTC 24 June 2019
Temperature: 27.0°C (81°F)
Dewpoint: 25.0°C (77°F) [RH = 89%]
Pressure (altimeter): 29.82 inches Hg (1010.0 mb)
Winds: variable direction winds at 3 MPH (3 knots; 1.5 m/s)
Visibility: 6 miles ( 9 km)
Ceiling: 14000 feet AGL
Clouds: few clouds at 1700 feet AGL
broken clouds at 14000 feet AGL
broken clouds at 28000 feet AGL
Weather: no significant weather observed at this time

METAR text: WMKK 242200Z 13004KT 090V190 9000 FEW017CB BKN140 BKN280 27/25 Q1009 NOSIG
Conditions at: WMKK (KUALA LUMPUR/SUB, MY) observed 2200 UTC 24 June 2019
Temperature: 27.0°C (81°F)
Dewpoint: 25.0°C (77°F) [RH = 89%]
Pressure (altimeter): 29.79 inches Hg (1009.0 mb)
Winds: from the SE (130 degrees) at 5 MPH (4 knots; 2.1 m/s)
Visibility: 6 miles ( 9 km)
Ceiling: 14000 feet AGL
Clouds: few clouds at 1700 feet AGL
broken clouds at 14000 feet AGL
broken clouds at 28000 feet AGL
Weather: no significant weather observed at this time

METAR text: WMKK 242130Z 14005KT 080V170 9000 FEW017CB BKN140 BKN280 27/25 Q1009 NOSIG
Conditions at: WMKK (KUALA LUMPUR/SUB, MY) observed 2130 UTC 24 June 2019
Temperature: 27.0°C (81°F)
Dewpoint: 25.0°C (77°F) [RH = 89%]
Pressure (altimeter): 29.79 inches Hg (1009.0 mb)
Winds: from the SE (140 degrees) at 6 MPH (5 knots; 2.6 m/s)
Visibility: 6 miles ( 9 km)
Ceiling: 14000 feet AGL
Clouds: few clouds at 1700 feet AGL
broken clouds at 14000 feet AGL
broken clouds at 28000 feet AGL
Weather: no significant weather observed at this time

METAR text: WMKK 242100Z 13005KT 090V170 9000 FEW030 SCT140 BKN280 27/25 Q1009 NOSIG
Conditions at: WMKK (KUALA LUMPUR/SUB, MY) observed 2100 UTC 24 June 2019
Temperature: 27.0°C (81°F)
Dewpoint: 25.0°C (77°F) [RH = 89%]
Pressure (altimeter): 29.79 inches Hg (1009.0 mb)
Winds: from the SE (130 degrees) at 6 MPH (5 knots; 2.6 m/s)
Visibility: 6 miles ( 9 km)
Ceiling: 28000 feet AGL
Clouds: few clouds at 3000 feet AGL
scattered clouds at 14000 feet AGL
broken clouds at 28000 feet AGL
Weather: no significant weather observed at this time

METAR text: WMKK 242030Z 14004KT 100V170 9000 FEW030 SCT140 BKN280 27/25 Q1009 NOSIG
Conditions at: WMKK (KUALA LUMPUR/SUB, MY) observed 2030 UTC 24 June 2019
Temperature: 27.0°C (81°F)
Dewpoint: 25.0°C (77°F) [RH = 89%]
Pressure (altimeter): 29.79 inches Hg (1009.0 mb)
Winds: from the SE (140 degrees) at 5 MPH (4 knots; 2.1 m/s)
Visibility: 6 miles ( 9 km)
Ceiling: 28000 feet AGL
Clouds: few clouds at 3000 feet AGL
scattered clouds at 14000 feet AGL
broken clouds at 28000 feet AGL
Weather: no significant weather observed at this time

METAR text: WMKK 242000Z 14005KT 110V170 9000 FEW030 SCT140 BKN280 27/25 Q1009 NOSIG
Conditions at: WMKK (KUALA LUMPUR/SUB, MY) observed 2000 UTC 24 June 2019
Temperature: 27.0°C (81°F)
Dewpoint: 25.0°C (77°F) [RH = 89%]
Pressure (altimeter): 29.79 inches Hg (1009.0 mb)
Winds: from the SE (140 degrees) at 6 MPH (5 knots; 2.6 m/s)
Visibility: 6 miles ( 9 km)
Ceiling: 28000 feet AGL
Clouds: few clouds at 3000 feet AGL
scattered clouds at 14000 feet AGL
broken clouds at 28000 feet AGL
Weather: no significant weather observed at this time

METAR text: WMKK 241930Z 13006KT 090V170 9000 FEW030 SCT140 BKN280 28/25 Q1009 NOSIG
Conditions at: WMKK (KUALA LUMPUR/SUB, MY) observed 1930 UTC 24 June 2019
Temperature: 28.0°C (82°F)
Dewpoint: 25.0°C (77°F) [RH = 84%]
Pressure (altimeter): 29.79 inches Hg (1009.0 mb)
Winds: from the SE (130 degrees) at 7 MPH (6 knots; 3.1 m/s)
Visibility: 6 miles ( 9 km)
Ceiling: 28000 feet AGL
Clouds: few clouds at 3000 feet AGL
scattered clouds at 14000 feet AGL
broken clouds at 28000 feet AGL
Weather: no significant weather observed at this time

METAR text: WMKK 241900Z 13006KT 100V200 9000 FEW030 SCT140 BKN280 28/25 Q1009 NOSIG
Conditions at: WMKK (KUALA LUMPUR/SUB, MY) observed 1900 UTC 24 June 2019
Temperature: 28.0°C (82°F)
Dewpoint: 25.0°C (77°F) [RH = 84%]
Pressure (altimeter): 29.79 inches Hg (1009.0 mb)
Winds: from the SE (130 degrees) at 7 MPH (6 knots; 3.1 m/s)
Visibility: 6 miles ( 9 km)
Ceiling: 28000 feet AGL
Clouds: few clouds at 3000 feet AGL
scattered clouds at 14000 feet AGL
broken clouds at 28000 feet AGL
Weather: no significant weather observed at this time

METAR text: WMKK 241830Z 13004KT 090V160 9999 FEW030 BKN140 BKN280 28/25 Q1009 NOSIG
Conditions at: WMKK (KUALA LUMPUR/SUB, MY) observed 1830 UTC 24 June 2019
Temperature: 28.0°C (82°F)
Dewpoint: 25.0°C (77°F) [RH = 84%]
Pressure (altimeter): 29.79 inches Hg (1009.0 mb)
Winds: from the SE (130 degrees) at 5 MPH (4 knots; 2.1 m/s)
Visibility: 6 or more miles (10+ km)
Ceiling: 14000 feet AGL
Clouds: few clouds at 3000 feet AGL
broken clouds at 14000 feet AGL
broken clouds at 28000 feet AGL
Weather: no significant weather observed at this time

METAR text: WMKK 241800Z 14003KT 090V190 9999 FEW030 SCT140 BKN280 28/25 Q1009 NOSIG
Conditions at: WMKK (KUALA LUMPUR/SUB, MY) observed 1800 UTC 24 June 2019
Temperature: 28.0°C (82°F)
Dewpoint: 25.0°C (77°F) [RH = 84%]
Pressure (altimeter): 29.79 inches Hg (1009.0 mb)
Winds: from the SE (140 degrees) at 3 MPH (3 knots; 1.5 m/s)
Visibility: 6 or more miles (10+ km)
Ceiling: 28000 feet AGL
Clouds: few clouds at 3000 feet AGL
scattered clouds at 14000 feet AGL
broken clouds at 28000 feet AGL
Weather: no significant weather observed at this time

METAR text: WMKK 241730Z VRB03KT 9999 FEW030 SCT140 BKN280 28/25 Q1009 NOSIG
Conditions at: WMKK (KUALA LUMPUR/SUB, MY) observed 1730 UTC 24 June 2019
Temperature: 28.0°C (82°F)
Dewpoint: 25.0°C (77°F) [RH = 84%]
Pressure (altimeter): 29.79 inches Hg (1009.0 mb)
Winds: variable direction winds at 3 MPH (3 knots; 1.5 m/s)
Visibility: 6 or more miles (10+ km)
Ceiling: 28000 feet AGL
Clouds: few clouds at 3000 feet AGL
scattered clouds at 14000 feet AGL
broken clouds at 28000 feet AGL
Weather: no significant weather observed at this time

METAR text: WMKK 241700Z 12004KT 070V170 9999 FEW030 SCT140 BKN280 28/25 Q1010 NOSIG
Conditions at: WMKK (KUALA LUMPUR/SUB, MY) observed 1700 UTC 24 June 2019
Temperature: 28.0°C (82°F)
Dewpoint: 25.0°C (77°F) [RH = 84%]
Pressure (altimeter): 29.82 inches Hg (1010.0 mb)
Winds: from the ESE (120 degrees) at 5 MPH (4 knots; 2.1 m/s)
Visibility: 6 or more miles (10+ km)
Ceiling: 28000 feet AGL
Clouds: few clouds at 3000 feet AGL
scattered clouds at 14000 feet AGL
broken clouds at 28000 feet AGL
Weather: no significant weather observed at this time

METAR text: WMKK 241630Z 09005KT 050V160 9999 FEW030 SCT140 BKN280 28/25 Q1010 NOSIG
Conditions at: WMKK (KUALA LUMPUR/SUB, MY) observed 1630 UTC 24 June 2019
Temperature: 28.0°C (82°F)
Dewpoint: 25.0°C (77°F) [RH = 84%]
Pressure (altimeter): 29.82 inches Hg (1010.0 mb)
Winds: from the E (90 degrees) at 6 MPH (5 knots; 2.6 m/s)
Visibility: 6 or more miles (10+ km)
Ceiling: 28000 feet AGL
Clouds: few clouds at 3000 feet AGL
scattered clouds at 14000 feet AGL
broken clouds at 28000 feet AGL
Weather: no significant weather observed at this time

Forecast for: WMKK (KUALA LUMPUR/SUB, MY)
Text: TAF WMKK 252300Z 2600/2706 31010KT 9999 FEW017CB
Forecast period: 0000 to 0200 UTC 26 June 2019
Forecast type: FROM: standard forecast or significant change
Winds: from the NW (310 degrees) at 12 MPH (10 knots; 5.1 m/s)
Visibility: 6 or more miles 10+ km)
Ceiling: at least 12,000 feet AGL
Clouds: few clouds at 1700 feet AGL
Weather: no significant weather forecast for this period
Text: BECMG 2602/2604 16009KT
Forecast period: 0200 to 0800 UTC 26 June 2019
Forecast type: BECOMING: Conditions expected to become as follows by 0400 UTC 26 June 2019
Winds: from the SSE (160 degrees) at 10 MPH (9 knots; 4.6 m/s)
Visibility: 6 or more miles 10+ km)
Ceiling: at least 12,000 feet AGL
Clouds: few clouds at 1700 feet AGL
Weather: no significant weather forecast for this period
Text: BECMG 2608/2610 13005KT FEW030
Forecast period: 0800 UTC 26 June 2019 to 0600 UTC 27 June 2019
Forecast type: BECOMING: Conditions expected to become as follows by 1000 UTC 26 June 2019
Winds: from the SE (130 degrees) at 6 MPH (5 knots; 2.6 m/s)
Visibility: 6 or more miles 10+ km)
Ceiling: at least 12,000 feet AGL
Clouds: few clouds at 3000 feet AGL
Weather: no significant weather forecast for this period
Text: TEMPO 2620/2700 30010G25KT 4000 TSRA FEW010 FEW017CB SCT018
Forecast period: 2000 UTC 26 June 2019 to 0000 UTC 27 June 2019
Forecast type: TEMPORARY: The following changes expected for less than half the time period
Winds: from the WNW (300 degrees) at 12 MPH (10 knots; 5.1 m/s)
gusting to 29 MPH (25 knots; 12.9 m/s)
Visibility: 2.49 miles (4.01 km)
Ceiling: at least 12,000 feet AGL
Clouds: few clouds at 1000 feet AGL
few clouds at 1700 feet AGL
scattered clouds at 1800 feet AGL
Weather: TSRA  (rain associated with thunderstorm(s))